Overview Statistics Trail Chart Weather Telemetry Raw packets
 

This is the latest recevied weather packets stored in our database for station/object JH5EWP-13. If no packets are shown the sender has not sent any weather packets the latest 10 day(s).

<< 5 6 7 8 9 10 11 >>
Time Temp. Humidity Pressure Rain* Wind** Luminosity Snow
1788184449 27.22° C 49% 1002.2 hPa 0 mm - - -
1788182649 27.78° C 44% 1001.8 hPa 0 mm - - -
1788180848 27.78° C 45% 1001.7 hPa 0 mm - - -
1788179048 27.78° C 45% 1001.7 hPa 0 mm - - -
1788177247 28.33° C 45% 1001.6 hPa 0 mm - - -
1788175449 28.33° C 45% 1001.6 hPa 0 mm - - -
1788173648 28.33° C 45% 1001.5 hPa 0 mm - - -
1788171848 28.33° C 45% 1001.1 hPa 0 mm - - -
1788170047 28.89° C 46% 1000.8 hPa 0 mm - - -
1788168248 29.44° C 46% 1000.7 hPa 0 mm - - -
1788166446 30° C 46% 1000.7 hPa 0 mm - - -
1788164648 30.56° C 46% 1000.7 hPa 0 mm - - -
1788162848 30.56° C 46% 1000.8 hPa 0 mm - - -
1788161047 31.67° C 46% 1000.5 hPa 0 mm - - -
1788159318 31.67° C 46% 1000.2 hPa 0 mm - - -
1788157518 32.22° C 46% 1000.2 hPa 0 mm - - -
1788155717 32.22° C 46% 1000.3 hPa 0 mm - - -
1788153919 31.67° C 46% 1000.1 hPa 0 mm - - -
1788152118 32.22° C 46% 1000.2 hPa 0 mm - - -
1788150319 32.78° C 42% 1000.3 hPa 0 mm - - -
1788148518 33.33° C 42% 1000.3 hPa 0 mm - - -
1788146717 33.33° C 42% 1000.3 hPa 0 mm - - -
1788144918 34.44° C 41% 1000.8 hPa 0 mm - - -
1788143118 33.89° C 42% 1001 hPa 0 mm - - -
1788141319 31.67° C 45% 1001 hPa 0 mm - - -

* Rain latest hour (hover to see other rain measurements)
** Current wind speed in m/s (hover to see current wind gust speed)